Aérodrome :
LOGIN :

S'inscrire | Disclaimer

   EN    FR    IT 

 










Légende :    VFR   VFR Marginal   IFR   IFR Intensif   IFR Très Intensif
Visi : 
Plafond : 
>= 8 km
>= 3000ft
5 à 8 km
1000 à 3000 ft
1500m à 5 km
500 à 1000 ft
800 à 1500m
200 à 500 ft
< 800m
< 200 ft
Symboles :   Orages  Brouillard  Fortes neiges  Fortes précipitations  Vent > 20 kt
SIGMETs :   Divers  Orages  Givrage  Turbulence  Onde Orograph.  Cendres Volcan.






- Altitude de l'aérodrome : 7 ft
- Code IATA : XHE


LFTH - Hyeres

DERNIER METAR :
  • 180500Z AUTO 31005KT CAVOK 09/03 Q1014 NOSIG

METARs EXPIRÉS :
  • 180430Z AUTO 33006KT CAVOK 09/04 Q1014 NOSIG
  • 180400Z AUTO 33006KT CAVOK 09/04 Q1014 NOSIG
  • 180330Z AUTO 32007KT CAVOK 09/04 Q1014 NOSIG
  • 180300Z AUTO 32006KT CAVOK 09/04 Q1014 NOSIG

TAF TAF LFTH
Valide du 18 à 03h jusqu'au 19 à 03h UTC


180200Z 1803/1903 35008KT CAVOK
BECMG 1809/1812 24010KT
PROB40
TEMPO 1812/1818 FEW060TCU
PROB30
TEMPO 1814/1817 SHRA FEW050CB
BECMG 1818/1820 35006KT



MET'MAP, la Météo Aéronautique d'un coup d'oeil ! - Copyright ORBIFLY Décembre 2007 - Disclaimer

ORBIFLY MET'MAP TEAM :

Programmation & Développement : Alexandra Zaïnal
Sur une idée originale de : Baudouin d'Aumeries
Assistance à la programmation : Marc-Olivier Méhu
Soutien technique & logistique : Manuel Goepfert

Contact : metmap@orbifly.com




SOURCES & CREDITS :

   NOAA